createdAt,value
2018-10-18T00:00:01.871Z,99.99
2018-10-18T00:01:12.138Z,99.99
2018-10-18T00:02:22.080Z,99.99
2018-10-18T00:03:32.284Z,99.99
2018-10-18T00:04:42.165Z,99.99
2018-10-18T00:05:52.175Z,99.99
2018-10-18T00:07:02.332Z,99.99
2018-10-18T00:08:12.193Z,99.99
2018-10-18T00:09:22.027Z,99.99
2018-10-18T00:10:31.723Z,99.99
2018-10-18T00:11:41.418Z,99.99
2018-10-18T00:12:50.861Z,99.99
2018-10-18T00:14:00.902Z,99.99
2018-10-18T00:15:11.326Z,99.99
2018-10-18T00:16:21.267Z,99.99
2018-10-18T00:17:30.970Z,99.99
2018-10-18T00:18:40.924Z,99.99
2018-10-18T00:19:50.864Z,99.99
2018-10-18T00:21:00.899Z,99.99
2018-10-18T00:22:10.604Z,99.99
2018-10-18T00:23:20.555Z,99.99
2018-10-18T00:24:30.508Z,99.99
2018-10-18T00:25:40.448Z,99.99
2018-10-18T00:26:50.394Z,99.99
2018-10-18T00:28:00.082Z,99.99
2018-10-18T00:29:09.783Z,99.99
2018-10-18T00:30:20.151Z,99.99
2018-10-18T00:31:30.172Z,99.99
2018-10-18T00:32:39.872Z,99.99
2018-10-18T00:33:49.569Z,99.99
2018-10-18T00:34:59.275Z,99.99
2018-10-18T00:36:09.173Z,99.99
2018-10-18T00:37:19.908Z,99.99
2018-10-18T00:38:29.605Z,99.99
2018-10-18T00:39:39.559Z,99.99
2018-10-18T00:40:49.248Z,99.99
2018-10-18T00:41:59.327Z,99.99
2018-10-18T00:43:09.536Z,99.99
2018-10-18T00:44:19.587Z,99.99
2018-10-18T00:45:29.331Z,99.99
2018-10-18T00:46:38.780Z,99.99
2018-10-18T00:47:48.730Z,99.99
2018-10-18T00:48:58.169Z,99.99
2018-10-18T00:50:08.301Z,99.99
2018-10-18T00:51:19.185Z,99.99
2018-10-18T00:52:29.141Z,99.99
2018-10-18T00:53:39.075Z,99.99
2018-10-18T00:54:49.037Z,99.99
2018-10-18T00:55:58.860Z,99.99
2018-10-18T00:57:08.687Z,99.99
2018-10-18T00:58:18.642Z,99.99
2018-10-18T00:59:28.345Z,99.99
2018-10-18T01:00:38.303Z,99.99
2018-10-18T01:01:48.240Z,99.99
2018-10-18T01:02:58.262Z,99.99
2018-10-18T01:04:08.226Z,99.99
2018-10-18T01:05:18.214Z,99.99
2018-10-18T01:06:28.170Z,99.99
2018-10-18T01:07:37.872Z,99.99
2018-10-18T01:08:47.834Z,99.99
2018-10-18T01:09:57.836Z,99.99
2018-10-18T01:11:07.550Z,99.99
2018-10-18T01:12:17.534Z,99.99
2018-10-18T01:13:28.369Z,99.99
2018-10-18T01:14:38.323Z,99.99
2018-10-18T01:15:48.016Z,99.99
2018-10-18T01:16:57.451Z,99.99
2018-10-18T01:18:07.623Z,99.99
2018-10-18T01:19:17.757Z,99.99
2018-10-18T01:20:27.715Z,99.99
2018-10-18T01:21:37.419Z,99.99
2018-10-18T01:22:47.395Z,99.99
2018-10-18T01:23:57.385Z,99.99
2018-10-18T01:25:07.394Z,99.99
2018-10-18T01:26:17.624Z,99.99
2018-10-18T01:27:27.359Z,99.99
2018-10-18T01:28:37.292Z,99.99
2018-10-18T01:29:47.240Z,99.99
2018-10-18T01:30:57.258Z,99.99
2018-10-18T01:32:07.386Z,99.99
2018-10-18T01:33:17.848Z,99.99
2018-10-18T01:34:27.840Z,99.99
2018-10-18T01:35:37.791Z,99.99
2018-10-18T01:36:47.485Z,99.99
2018-10-18T01:37:56.988Z,99.99
2018-10-18T01:39:06.849Z,99.99
2018-10-18T01:40:16.562Z,99.99
2018-10-18T01:41:26.267Z,99.99
2018-10-18T01:42:36.212Z,99.99
2018-10-18T01:43:46.165Z,99.99
2018-10-18T01:44:56.155Z,99.99
2018-10-18T01:46:05.888Z,99.99
2018-10-18T01:47:15.571Z,99.99
2018-10-18T01:48:25.275Z,99.99
2018-10-18T01:49:35.238Z,99.99
2018-10-18T01:50:45.190Z,99.99
2018-10-18T01:51:55.127Z,99.99
2018-10-18T01:53:04.834Z,99.99
2018-10-18T01:54:14.994Z,99.99
2018-10-18T01:55:24.724Z,99.99
2018-10-18T01:56:34.668Z,99.99
2018-10-18T01:57:44.359Z,99.99
2018-10-18T01:58:54.311Z,99.99
2018-10-18T02:00:04.464Z,99.99
2018-10-18T02:01:14.747Z,99.99
2018-10-18T02:02:24.690Z,99.99
2018-10-18T02:03:34.665Z,99.99
2018-10-18T02:04:44.366Z,99.99
2018-10-18T02:05:54.342Z,99.99
2018-10-18T02:07:04.245Z,99.99
2018-10-18T02:08:14.558Z,99.99
2018-10-18T02:09:24.788Z,99.99
2018-10-18T02:10:34.475Z,99.99
2018-10-18T02:11:44.158Z,99.99
2018-10-18T02:12:53.867Z,99.99
2018-10-18T02:14:03.817Z,99.99
2018-10-18T02:15:13.768Z,99.99
2018-10-18T02:16:23.487Z,99.99
2018-10-18T02:17:33.434Z,99.99
2018-10-18T02:18:42.872Z,99.99
2018-10-18T02:19:52.816Z,99.99
2018-10-18T02:21:02.774Z,99.99
2018-10-18T02:22:12.471Z,99.99
2018-10-18T02:23:22.441Z,99.99
2018-10-18T02:24:32.138Z,99.99
2018-10-18T02:25:42.128Z,99.99
2018-10-18T02:26:51.811Z,99.99
2018-10-18T02:28:01.757Z,99.99
2018-10-18T02:29:11.708Z,99.99
2018-10-18T02:30:21.822Z,99.99
2018-10-18T02:31:31.952Z,99.99
2018-10-18T02:32:41.905Z,99.99
2018-10-18T02:33:51.648Z,99.99
2018-10-18T02:35:01.610Z,99.99
2018-10-18T02:36:11.789Z,99.99
2018-10-18T02:37:22.181Z,99.99
2018-10-18T02:38:32.139Z,99.99
2018-10-18T02:39:42.124Z,99.99
2018-10-18T02:40:52.074Z,99.99
2018-10-18T02:42:02.147Z,99.99
2018-10-18T02:43:12.499Z,99.99
2018-10-18T02:44:22.200Z,99.99
2018-10-18T02:45:32.164Z,99.99
2018-10-18T02:46:41.862Z,99.99
2018-10-18T02:47:51.830Z,99.99
2018-10-18T02:49:01.836Z,99.99
2018-10-18T02:50:11.780Z,99.99
2018-10-18T02:51:21.474Z,99.99
2018-10-18T02:52:31.422Z,99.99
2018-10-18T02:53:41.362Z,99.99
2018-10-18T02:54:51.335Z,99.99
2018-10-18T02:56:01.281Z,99.99
2018-10-18T02:57:11.230Z,99.99
2018-10-18T02:58:21.168Z,99.99
2018-10-18T02:59:30.858Z,99.99
2018-10-18T03:00:40.831Z,99.99
2018-10-18T03:01:50.539Z,99.99
2018-10-18T03:03:00.512Z,99.99
2018-10-18T03:04:10.489Z,99.99
2018-10-18T03:05:20.419Z,99.99
2018-10-18T03:06:30.357Z,99.99
2018-10-18T03:07:40.058Z,99.99
2018-10-18T03:08:50.006Z,99.99
2018-10-18T03:09:59.967Z,99.99
2018-10-18T03:11:09.918Z,99.99
2018-10-18T03:12:20.235Z,99.99
2018-10-18T03:13:30.447Z,99.99
2018-10-18T03:14:40.394Z,99.99
2018-10-18T03:15:50.431Z,99.99
2018-10-18T03:17:00.754Z,99.99
2018-10-18T03:18:10.564Z,99.99
2018-10-18T03:19:21.151Z,99.99
2018-10-18T03:20:30.842Z,99.99
2018-10-18T03:21:40.541Z,99.99
2018-10-18T03:22:50.238Z,99.99
2018-10-18T03:24:00.266Z,99.99
2018-10-18T03:25:10.219Z,99.99
2018-10-18T03:26:20.130Z,99.99
2018-10-18T03:27:30.098Z,99.99
2018-10-18T03:28:40.057Z,99.99
2018-10-18T03:29:50.013Z,99.99
2018-10-18T03:30:59.920Z,99.99
2018-10-18T03:32:09.644Z,99.99
2018-10-18T03:33:19.607Z,99.99
2018-10-18T03:34:29.322Z,99.99
2018-10-18T03:35:38.995Z,99.99
2018-10-18T03:36:48.944Z,99.99
2018-10-18T03:37:58.908Z,99.99
2018-10-18T03:39:08.852Z,99.99
2018-10-18T03:40:18.798Z,99.99
2018-10-18T03:41:28.879Z,99.99
2018-10-18T03:42:39.346Z,99.99
2018-10-18T03:43:49.302Z,99.99
2018-10-18T03:44:58.752Z,99.99
2018-10-18T03:46:08.698Z,99.99
2018-10-18T03:47:18.656Z,99.99
2018-10-18T03:48:28.601Z,99.99
2018-10-18T03:49:38.297Z,99.99
2018-10-18T03:50:47.994Z,99.99
2018-10-18T03:51:57.691Z,99.99
2018-10-18T03:53:07.378Z,99.99
2018-10-18T03:54:17.112Z,99.99
2018-10-18T03:55:27.258Z,99.99
2018-10-18T03:56:37.215Z,99.99
2018-10-18T03:57:46.908Z,99.99
2018-10-18T03:58:56.881Z,99.99
2018-10-18T04:00:06.874Z,99.99
2018-10-18T04:01:17.294Z,99.99
2018-10-18T04:02:26.737Z,99.99
2018-10-18T04:03:36.692Z,99.99
2018-10-18T04:04:46.644Z,99.99
2018-10-18T04:05:56.160Z,99.99
2018-10-18T04:07:06.361Z,99.99
2018-10-18T04:08:16.316Z,99.99
2018-10-18T04:09:26.026Z,99.99
2018-10-18T04:10:35.974Z,99.99
2018-10-18T04:11:45.935Z,99.99
2018-10-18T04:12:56.165Z,99.99
2018-10-18T04:14:06.077Z,99.99
2018-10-18T04:15:16.028Z,99.99
2018-10-18T04:16:25.999Z,99.99
2018-10-18T04:17:35.964Z,99.99
2018-10-18T04:18:45.727Z,99.99
2018-10-18T04:19:55.430Z,99.99
2018-10-18T04:21:05.400Z,99.99
2018-10-18T04:22:15.340Z,99.99
2018-10-18T04:23:25.299Z,99.99
2018-10-18T04:24:35.253Z,99.99
2018-10-18T04:25:45.316Z,99.99
2018-10-18T04:26:55.017Z,99.99
2018-10-18T04:28:04.696Z,99.99
2018-10-18T04:29:14.642Z,99.99
2018-10-18T04:30:24.470Z,99.99
2018-10-18T04:31:34.438Z,99.99
2018-10-18T04:32:44.386Z,99.99
2018-10-18T04:33:54.341Z,99.99
2018-10-18T04:35:04.326Z,99.99
2018-10-18T04:36:14.570Z,99.99
2018-10-18T04:37:24.851Z,99.99
2018-10-18T04:38:35.283Z,99.99
2018-10-18T04:39:45.243Z,99.99
2018-10-18T04:40:55.181Z,99.99
2018-10-18T04:42:05.252Z,99.99
2018-10-18T04:43:15.505Z,99.99
2018-10-18T04:44:25.208Z,99.99
2018-10-18T04:45:34.898Z,99.99
2018-10-18T04:46:44.585Z,99.99
2018-10-18T04:47:54.940Z,99.99
2018-10-18T04:49:05.833Z,99.99
2018-10-18T04:50:15.819Z,99.99
2018-10-18T04:51:25.511Z,99.99
2018-10-18T04:52:35.220Z,99.99
2018-10-18T04:53:45.174Z,99.99
2018-10-18T04:54:54.902Z,99.99
2018-10-18T04:56:04.665Z,99.99
2018-10-18T04:57:14.359Z,99.99
2018-10-18T04:58:24.308Z,99.99
2018-10-18T04:59:34.244Z,99.99
2018-10-18T05:00:44.199Z,99.99
2018-10-18T05:01:54.201Z,99.99
2018-10-18T05:03:04.147Z,99.99
2018-10-18T05:04:14.121Z,99.99
2018-10-18T05:05:23.824Z,99.99
2018-10-18T05:06:33.774Z,99.99
2018-10-18T05:07:43.741Z,99.99
2018-10-18T05:08:53.681Z,99.99
2018-10-18T05:10:03.112Z,99.99
2018-10-18T05:11:13.252Z,99.99
2018-10-18T05:12:23.350Z,99.99
2018-10-18T05:13:32.821Z,99.99
2018-10-18T05:14:42.788Z,99.99
2018-10-18T05:15:52.484Z,99.99
2018-10-18T05:17:02.422Z,99.99
2018-10-18T05:18:11.857Z,99.99
2018-10-18T05:19:21.564Z,99.99
2018-10-18T05:20:31.576Z,99.99
2018-10-18T05:21:41.567Z,99.99
2018-10-18T05:22:51.499Z,99.99
2018-10-18T05:24:01.446Z,99.99
2018-10-18T05:25:11.507Z,99.99
2018-10-18T05:26:21.473Z,99.99
2018-10-18T05:27:31.412Z,99.99
2018-10-18T05:28:41.365Z,99.99
2018-10-18T05:29:51.318Z,99.99
2018-10-18T05:31:01.297Z,99.99
2018-10-18T05:32:11.722Z,99.99
2018-10-18T05:33:21.657Z,99.99
2018-10-18T05:34:31.600Z,99.99
2018-10-18T05:35:41.303Z,99.99
2018-10-18T05:36:50.984Z,99.99
2018-10-18T05:38:00.951Z,99.99
2018-10-18T05:39:10.938Z,99.99
2018-10-18T05:40:20.664Z,99.99
2018-10-18T05:41:30.635Z,99.99
2018-10-18T05:42:40.617Z,99.99
2018-10-18T05:43:50.603Z,99.99
2018-10-18T05:45:00.300Z,99.99
2018-10-18T05:46:10.282Z,99.99
2018-10-18T05:47:20.554Z,99.99
2018-10-18T05:48:30.788Z,99.99
2018-10-18T05:49:40.747Z,99.99
2018-10-18T05:50:50.710Z,99.99
2018-10-18T05:52:00.394Z,99.99
2018-10-18T05:53:10.615Z,99.99
2018-10-18T05:54:20.579Z,99.99
2018-10-18T05:55:30.350Z,99.99
2018-10-18T05:56:40.310Z,99.99
2018-10-18T05:57:50.284Z,99.99
2018-10-18T05:59:00.257Z,99.99
2018-10-18T06:00:10.309Z,99.99
2018-10-18T06:01:21.025Z,99.99
2018-10-18T06:02:30.781Z,99.99
2018-10-18T06:03:40.743Z,99.99
2018-10-18T06:04:50.698Z,99.99
2018-10-18T06:06:00.636Z,99.99
2018-10-18T06:07:10.585Z,99.99
2018-10-18T06:08:21.249Z,99.99
2018-10-18T06:09:31.250Z,99.99
2018-10-18T06:10:41.539Z,99.99
2018-10-18T06:11:51.250Z,99.99
2018-10-18T06:13:01.294Z,99.99
2018-10-18T06:14:11.487Z,99.99
2018-10-18T06:15:21.447Z,99.99
2018-10-18T06:16:31.157Z,99.99
2018-10-18T06:17:40.599Z,99.99
2018-10-18T06:18:50.292Z,99.99
2018-10-18T06:20:00.439Z,99.99
2018-10-18T06:21:10.383Z,99.99
2018-10-18T06:22:20.366Z,99.99
2018-10-18T06:23:30.506Z,99.99
2018-10-18T06:24:40.507Z,99.99
2018-10-18T06:25:50.193Z,99.99
2018-10-18T06:27:00.141Z,99.99
2018-10-18T06:28:09.853Z,99.99
2018-10-18T06:29:19.948Z,99.99
2018-10-18T06:30:29.942Z,99.99
2018-10-18T06:31:39.893Z,99.99
2018-10-18T06:32:49.836Z,99.99
2018-10-18T06:34:00.007Z,99.99
2018-10-18T06:35:10.119Z,99.99
2018-10-18T06:36:19.948Z,99.99
2018-10-18T06:37:30.179Z,99.99
2018-10-18T06:38:40.399Z,99.99
2018-10-18T06:39:49.849Z,99.99
2018-10-18T06:40:59.867Z,99.99
2018-10-18T06:42:09.778Z,99.99
2018-10-18T06:43:19.894Z,99.99
2018-10-18T06:44:29.884Z,99.99
2018-10-18T06:45:39.835Z,99.99
2018-10-18T06:46:49.969Z,99.99
2018-10-18T06:48:00.887Z,99.99
2018-10-18T06:49:11.393Z,99.99
2018-10-18T06:50:21.330Z,99.99
2018-10-18T06:51:31.065Z,99.99
2018-10-18T06:52:41.058Z,99.99
2018-10-18T06:53:51.006Z,99.99
2018-10-18T06:55:01.139Z,99.99
2018-10-18T06:56:11.406Z,99.99
2018-10-18T06:57:21.381Z,99.99
2018-10-18T06:58:31.334Z,99.99
2018-10-18T06:59:41.343Z,99.99
2018-10-18T07:00:51.755Z,99.99
2018-10-18T07:02:01.439Z,99.99
2018-10-18T07:03:11.155Z,99.99
2018-10-18T07:04:21.148Z,99.99
2018-10-18T07:05:30.861Z,99.99
2018-10-18T07:06:40.825Z,99.99
2018-10-18T07:07:50.316Z,99.99
2018-10-18T07:09:00.238Z,99.99
2018-10-18T07:10:10.434Z,99.99
2018-10-18T07:11:20.416Z,99.99
2018-10-18T07:12:30.128Z,99.99
2018-10-18T07:13:39.833Z,99.99
2018-10-18T07:14:49.808Z,99.99
2018-10-18T07:15:59.295Z,99.99
2018-10-18T07:17:09.316Z,99.99
2018-10-18T07:18:19.513Z,99.99
2018-10-18T07:19:29.532Z,99.99
2018-10-18T07:20:39.488Z,99.99
2018-10-18T07:21:49.644Z,99.99
2018-10-18T07:22:59.649Z,99.99
2018-10-18T07:24:09.527Z,99.99
2018-10-18T07:25:20.338Z,99.99
2018-10-18T07:26:30.812Z,99.99
2018-10-18T07:27:40.759Z,99.99
2018-10-18T07:28:49.968Z,99.99
2018-10-18T07:30:00.154Z,99.99
2018-10-18T07:31:10.512Z,99.99
2018-10-18T07:32:20.235Z,99.99
2018-10-18T07:33:30.181Z,99.99
2018-10-18T07:34:40.134Z,99.99
2018-10-18T07:35:50.201Z,99.99
2018-10-18T07:37:00.047Z,99.99
2018-10-18T07:38:10.206Z,99.99
2018-10-18T07:39:20.293Z,99.99
2018-10-18T07:40:29.992Z,99.99
2018-10-18T07:41:39.972Z,99.99
2018-10-18T07:42:49.966Z,99.99
2018-10-18T07:43:59.672Z,99.99
2018-10-18T07:45:09.114Z,99.99
2018-10-18T07:46:19.174Z,99.99
2018-10-18T07:47:29.172Z,99.99
2018-10-18T07:48:38.872Z,99.99
2018-10-18T07:49:48.855Z,99.99
2018-10-18T07:50:58.823Z,99.99
2018-10-18T07:52:08.812Z,99.99
2018-10-18T07:53:18.718Z,99.99
2018-10-18T07:54:29.065Z,99.99
2018-10-18T07:55:38.760Z,99.99
2018-10-18T07:56:48.208Z,99.99
2018-10-18T07:57:58.193Z,99.99
2018-10-18T07:59:08.181Z,99.99
2018-10-18T08:00:18.567Z,99.99
2018-10-18T08:01:29.044Z,99.99
2018-10-18T08:02:39.013Z,99.99
2018-10-18T08:03:48.982Z,99.99
2018-10-18T08:04:58.944Z,99.99
2018-10-18T08:06:08.914Z,99.99
2018-10-18T08:07:19.104Z,99.99
2018-10-18T08:08:29.373Z,99.99
2018-10-18T08:09:39.339Z,99.99
2018-10-18T08:10:49.348Z,99.99
2018-10-18T08:11:58.888Z,99.99
2018-10-18T08:13:09.086Z,99.99
2018-10-18T08:14:19.530Z,99.99
2018-10-18T08:15:28.687Z,99.99
2018-10-18T08:16:38.795Z,99.99
2018-10-18T08:17:48.777Z,99.99
2018-10-18T08:18:58.847Z,99.99
2018-10-18T08:20:08.772Z,99.99
2018-10-18T08:21:18.723Z,99.95
2018-10-18T08:22:28.793Z,99.33
2018-10-18T08:23:38.776Z,98.28
2018-10-18T08:24:48.756Z,97.42
2018-10-18T08:25:58.481Z,97.52
2018-10-18T08:27:08.181Z,96.32
2018-10-18T08:28:18.158Z,96.22
2018-10-18T08:29:27.857Z,94.6
2018-10-18T08:30:38.063Z,94.55
2018-10-18T08:31:47.991Z,92.83
2018-10-18T08:32:58.087Z,92.54
2018-10-18T08:34:08.102Z,91.05
2018-10-18T08:35:17.806Z,89.81
2018-10-18T08:36:27.826Z,89.9
2018-10-18T08:37:38.007Z,89.86
2018-10-18T08:38:48.782Z,89.95
2018-10-18T08:39:58.759Z,88.8
2018-10-18T08:41:08.725Z,87.84
2018-10-18T08:42:18.689Z,87.5
2018-10-18T08:43:28.681Z,85.88
2018-10-18T08:44:38.849Z,85.58
2018-10-18T08:45:48.292Z,85.88
2018-10-18T08:46:58.252Z,84.19
2018-10-18T08:48:08.209Z,84.58
2018-10-18T08:49:18.467Z,83.42
2018-10-18T08:50:28.556Z,80.78
2018-10-18T08:51:38.527Z,79.47
2018-10-18T08:52:48.502Z,79.67
2018-10-18T08:53:58.493Z,79.13
2018-10-18T08:55:08.118Z,78.78
2018-10-18T08:56:18.496Z,76.39
2018-10-18T08:57:28.470Z,76.19
2018-10-18T08:58:38.459Z,75.32
2018-10-18T08:59:48.447Z,74.4
2018-10-18T09:00:57.931Z,74.6
2018-10-18T09:02:08.206Z,74.11
2018-10-18T09:03:18.191Z,72.9
2018-10-18T09:04:27.694Z,70.92
2018-10-18T09:05:37.406Z,70.34
2018-10-18T09:06:47.375Z,71.49
2018-10-18T09:07:57.431Z,71.49
2018-10-18T09:09:07.515Z,71.69
2018-10-18T09:10:17.984Z,70.82
2018-10-18T09:11:28.041Z,69.41
2018-10-18T09:12:38.043Z,68.54
2018-10-18T09:13:48.014Z,69.41
2018-10-18T09:14:57.742Z,69.47
2018-10-18T09:16:07.798Z,69.09
2018-10-18T09:17:17.856Z,69.76
2018-10-18T09:18:27.812Z,69.76
2018-10-18T09:19:37.752Z,69.57
2018-10-18T09:20:47.459Z,69.22
2018-10-18T09:21:57.424Z,67.58
2018-10-18T09:23:06.894Z,67.33
2018-10-18T09:24:16.851Z,67.81
2018-10-18T09:25:26.824Z,68.35
2018-10-18T09:26:36.808Z,67.58
2018-10-18T09:27:46.521Z,67.87
2018-10-18T09:28:56.469Z,67.49
2018-10-18T09:30:06.219Z,67.49
2018-10-18T09:31:16.632Z,67.61
2018-10-18T09:32:26.867Z,67.71
2018-10-18T09:33:36.593Z,67.13
2018-10-18T09:34:46.587Z,68.06
2018-10-18T09:35:56.316Z,68.6
2018-10-18T09:37:06.153Z,68.41
2018-10-18T09:38:16.778Z,69.47
2018-10-18T09:39:27.121Z,69.28
2018-10-18T09:40:36.820Z,67.93
2018-10-18T09:41:46.802Z,68.74
2018-10-18T09:42:56.794Z,68.6
2018-10-18T09:44:06.779Z,68.32
2018-10-18T09:45:16.971Z,68.6
2018-10-18T09:46:26.997Z,68.6
2018-10-18T09:47:36.486Z,68.03
2018-10-18T09:48:46.460Z,68.22
2018-10-18T09:49:56.493Z,68.7
2018-10-18T09:51:06.461Z,68.13
2018-10-18T09:52:16.188Z,67.49
2018-10-18T09:53:25.932Z,67.39
2018-10-18T09:54:35.977Z,66.91
2018-10-18T09:55:46.208Z,66.62
2018-10-18T09:56:56.627Z,66.52
2018-10-18T09:58:06.603Z,67.19
2018-10-18T09:59:16.604Z,67.83
2018-10-18T10:00:26.345Z,67.83
2018-10-18T10:01:36.317Z,68.03
2018-10-18T10:02:46.282Z,68.13
2018-10-18T10:03:56.274Z,68.41
2018-10-18T10:05:06.165Z,68.22
2018-10-18T10:06:16.196Z,67.07
2018-10-18T10:07:26.178Z,65.85
2018-10-18T10:08:36.163Z,64.82
2018-10-18T10:09:45.610Z,64.79
2018-10-18T10:10:55.593Z,64.43
2018-10-18T10:12:05.554Z,64.53
2018-10-18T10:13:16.019Z,65.2
2018-10-18T10:14:26.226Z,65.56
2018-10-18T10:15:36.197Z,64.21
2018-10-18T10:16:45.925Z,63.76
2018-10-18T10:17:55.700Z,63.09
2018-10-18T10:19:05.839Z,63.38
2018-10-18T10:20:15.742Z,63.95
2018-10-18T10:21:25.698Z,64.34
2018-10-18T10:22:35.682Z,62.51
2018-10-18T10:23:45.399Z,62.9
2018-10-18T10:24:55.465Z,63.85
2018-10-18T10:26:05.688Z,64.53
2018-10-18T10:27:15.407Z,64.98
2018-10-18T10:28:25.180Z,65.33
2018-10-18T10:29:35.153Z,65.33
2018-10-18T10:30:45.362Z,65.24
2018-10-18T10:31:55.379Z,64.37
2018-10-18T10:33:05.433Z,63.15
2018-10-18T10:34:15.868Z,61.65
2018-10-18T10:35:25.934Z,61.68
2018-10-18T10:36:36.208Z,61.58
2018-10-18T10:37:45.916Z,60.71
2018-10-18T10:38:55.938Z,61.83
2018-10-18T10:40:05.918Z,62.12
2018-10-18T10:41:16.676Z,61.74
2018-10-18T10:42:26.723Z,62.51
2018-10-18T10:43:36.411Z,62.51
2018-10-18T10:44:46.395Z,62.51
2018-10-18T10:45:56.541Z,62.12
2018-10-18T10:47:06.767Z,61.55
2018-10-18T10:48:16.937Z,62.51
2018-10-18T10:49:27.202Z,63.82
2018-10-18T10:50:37.177Z,64.89
2018-10-18T10:51:46.915Z,65.33
2018-10-18T10:52:56.632Z,66.94
2018-10-18T10:54:06.731Z,67.38
2018-10-18T10:55:17.461Z,67.29
2018-10-18T10:56:27.414Z,67.38
2018-10-18T10:57:37.131Z,65.97
2018-10-18T10:58:46.901Z,64.95
2018-10-18T10:59:57.158Z,64.4
2018-10-18T11:01:07.398Z,64.86
2018-10-18T11:02:17.770Z,65.53
2018-10-18T11:03:27.885Z,64.28
2018-10-18T11:04:37.869Z,64.31
2018-10-18T11:05:47.335Z,64.89
2018-10-18T11:06:57.416Z,65.72
2018-10-18T11:08:07.561Z,66.74
2018-10-18T11:09:18.470Z,66.07
2018-10-18T11:10:28.675Z,66.65
2018-10-18T11:11:38.395Z,66.55
2018-10-18T11:12:48.534Z,66.3
2018-10-18T11:13:58.562Z,66.74
2018-10-18T11:15:08.574Z,67.51
2018-10-18T11:16:18.736Z,67.71
2018-10-18T11:17:28.202Z,68.73
2018-10-18T11:18:37.907Z,70.17
2018-10-18T11:19:47.880Z,71.1
2018-10-18T11:20:57.984Z,71.25
2018-10-18T11:22:08.321Z,71.83
2018-10-18T11:23:18.034Z,71.93
2018-10-18T11:24:27.995Z,71.83
2018-10-18T11:25:37.856Z,72.22
2018-10-18T11:26:47.578Z,72.56
2018-10-18T11:27:57.637Z,72.47
2018-10-18T11:29:07.344Z,73.52
2018-10-18T11:30:17.620Z,73.33
2018-10-18T11:31:27.880Z,73.43
2018-10-18T11:32:37.847Z,74.29
2018-10-18T11:33:47.823Z,74.01
2018-10-18T11:34:57.546Z,74.01
2018-10-18T11:36:07.691Z,74.01
2018-10-18T11:37:18.112Z,74.58
2018-10-18T11:38:28.097Z,74.73
2018-10-18T11:39:38.120Z,75.02
2018-10-18T11:40:47.843Z,74.64
2018-10-18T11:41:57.352Z,75.79
2018-10-18T11:43:07.628Z,75.6
2018-10-18T11:44:17.719Z,75.89
2018-10-18T11:45:28.074Z,76.65
2018-10-18T11:46:37.796Z,77.19
2018-10-18T11:47:47.527Z,78.2
2018-10-18T11:48:57.577Z,79.45
2018-10-18T11:50:07.591Z,79.99
2018-10-18T11:51:17.710Z,80.76
2018-10-18T11:52:27.856Z,81.52
2018-10-18T11:53:37.005Z,81.33
2018-10-18T11:54:46.972Z,81.04
2018-10-18T11:55:57.052Z,80.76
2018-10-18T11:57:07.259Z,80.03
2018-10-18T11:58:16.985Z,79.26
2018-10-18T11:59:26.674Z,78.78
2018-10-18T12:00:36.377Z,77.67
2018-10-18T12:01:46.065Z,77.38
2018-10-18T12:02:56.022Z,77.04
2018-10-18T12:04:05.737Z,75.02
2018-10-18T12:05:15.701Z,74.39
2018-10-18T12:06:25.718Z,74.01
2018-10-18T12:07:35.658Z,73.24
2018-10-18T12:08:45.619Z,73.91
2018-10-18T12:09:55.282Z,73.43
2018-10-18T12:11:04.921Z,72.22
2018-10-18T12:12:15.416Z,71.64
2018-10-18T12:13:25.394Z,71
2018-10-18T12:14:35.373Z,70.72
2018-10-18T12:15:45.362Z,71.39
2018-10-18T12:16:55.196Z,71.87
2018-10-18T12:18:05.436Z,72.06
2018-10-18T12:19:15.705Z,71.58
2018-10-18T12:20:26.037Z,71
2018-10-18T12:21:36.029Z,71.58
2018-10-18T12:22:45.765Z,71.1
2018-10-18T12:23:55.762Z,71.71
2018-10-18T12:25:05.482Z,70.04
2018-10-18T12:26:15.732Z,70.27
2018-10-18T12:27:25.794Z,70.65
2018-10-18T12:28:35.236Z,70.9
2018-10-18T12:29:44.984Z,71.1
2018-10-18T12:30:54.718Z,71
2018-10-18T12:32:04.867Z,71.61
2018-10-18T12:33:15.352Z,72.25
2018-10-18T12:34:25.305Z,73.41
2018-10-18T12:35:35.278Z,74.04
2018-10-18T12:36:44.991Z,74.52
2018-10-18T12:37:54.781Z,75.25
2018-10-18T12:39:05.059Z,74.68
2018-10-18T12:40:15.476Z,74.52
2018-10-18T12:41:26.181Z,73.85
2018-10-18T12:42:36.206Z,73.6
2018-10-18T12:43:46.175Z,72.34
2018-10-18T12:44:55.892Z,72.58
2018-10-18T12:46:05.622Z,72.73
2018-10-18T12:47:15.590Z,73.21
2018-10-18T12:48:25.805Z,72.58
2018-10-18T12:49:36.036Z,72.92
2018-10-18T12:50:46.008Z,72.09
2018-10-18T12:51:56.014Z,72.58
2018-10-18T12:53:05.984Z,72.19
2018-10-18T12:54:16.328Z,72.77
2018-10-18T12:55:26.596Z,72.48
2018-10-18T12:56:36.581Z,72.64
2018-10-18T12:57:46.277Z,72
2018-10-18T12:58:56.220Z,71.17
2018-10-18T13:00:06.247Z,70.98
2018-10-18T13:01:16.605Z,70.43
2018-10-18T13:02:26.446Z,70.05
2018-10-18T13:03:36.806Z,70.24
2018-10-18T13:04:46.772Z,70.43
2018-10-18T13:05:56.571Z,71.2
2018-10-18T13:07:06.411Z,71.49
2018-10-18T13:08:16.503Z,72.13
2018-10-18T13:09:26.303Z,72.42
2018-10-18T13:10:36.366Z,73.63
2018-10-18T13:11:46.335Z,74.79
2018-10-18T13:12:56.352Z,77.83
2018-10-18T13:14:06.480Z,78.42
2018-10-18T13:15:16.937Z,79.57
2018-10-18T13:16:26.914Z,80.24
2018-10-18T13:17:36.356Z,81.16
2018-10-18T13:18:46.063Z,82.7
2018-10-18T13:19:56.041Z,83.04
2018-10-18T13:21:06.252Z,83.56
2018-10-18T13:22:16.210Z,83.71
2018-10-18T13:23:25.916Z,84.48
2018-10-18T13:24:35.633Z,86.11
2018-10-18T13:25:45.818Z,87.21
2018-10-18T13:26:55.789Z,87.21
2018-10-18T13:28:05.736Z,87.5
2018-10-18T13:29:15.458Z,86.93
2018-10-18T13:30:25.439Z,87.21
2018-10-18T13:31:35.150Z,87.41
2018-10-18T13:32:45.115Z,87.7
2018-10-18T13:33:55.170Z,88.17
2018-10-18T13:35:05.106Z,88.46
2018-10-18T13:36:15.107Z,88.17
2018-10-18T13:37:25.358Z,88.94
2018-10-18T13:38:35.324Z,90.43
2018-10-18T13:39:45.039Z,91.67
2018-10-18T13:40:55.150Z,92.54
2018-10-18T13:42:05.030Z,93.74
2018-10-18T13:43:15.063Z,93.74
2018-10-18T13:44:25.016Z,94.6
2018-10-18T13:45:34.744Z,95.46
2018-10-18T13:46:44.706Z,96.32
2018-10-18T13:47:54.691Z,96.51
2018-10-18T13:49:04.505Z,96.84
2018-10-18T13:50:14.711Z,97.75
2018-10-18T13:51:24.961Z,98.52
2018-10-18T13:52:34.674Z,99.99
2018-10-18T13:53:44.661Z,99.99
2018-10-18T13:54:54.630Z,99.99
2018-10-18T13:56:04.474Z,99.99
2018-10-18T13:57:14.982Z,99.99
2018-10-18T13:58:24.690Z,99.99
2018-10-18T13:59:35.111Z,99.99
2018-10-18T14:00:45.113Z,99.99
2018-10-18T14:01:54.916Z,99.99
2018-10-18T14:03:05.136Z,99.99
2018-10-18T14:04:15.106Z,99.99
2018-10-18T14:05:25.167Z,99.99
2018-10-18T14:06:35.408Z,99.99
2018-10-18T14:07:45.414Z,99.99
2018-10-18T14:08:55.766Z,99.99
2018-10-18T14:10:05.728Z,99.99
2018-10-18T14:11:15.647Z,99.99
2018-10-18T14:12:25.923Z,99.99
2018-10-18T14:13:35.889Z,99.99
2018-10-18T14:14:45.842Z,99.99
2018-10-18T14:15:55.805Z,99.99
2018-10-18T14:17:05.945Z,99.99
2018-10-18T14:18:16.707Z,99.99
2018-10-18T14:19:25.886Z,99.99
2018-10-18T14:20:35.843Z,99.99
2018-10-18T14:21:45.812Z,99.99
2018-10-18T14:22:55.563Z,99.99
2018-10-18T14:24:05.422Z,99.99
2018-10-18T14:25:15.411Z,99.99
2018-10-18T14:26:25.379Z,99.99
2018-10-18T14:27:35.337Z,99.99
2018-10-18T14:28:45.298Z,99.99
2018-10-18T14:29:55.039Z,99.99
2018-10-18T14:31:04.826Z,99.99
2018-10-18T14:32:15.090Z,99.99
2018-10-18T14:33:25.518Z,99.99
2018-10-18T14:34:35.227Z,99.99
2018-10-18T14:35:45.175Z,99.99
2018-10-18T14:36:54.875Z,99.99
2018-10-18T14:38:04.693Z,99.99
2018-10-18T14:39:14.925Z,99.99
2018-10-18T14:40:24.621Z,99.99
2018-10-18T14:41:34.585Z,99.99
2018-10-18T14:42:44.574Z,99.99
2018-10-18T14:43:54.496Z,99.99
2018-10-18T14:45:04.531Z,99.99
2018-10-18T14:46:15.116Z,99.99
2018-10-18T14:47:25.475Z,99.99
2018-10-18T14:48:35.960Z,99.99
2018-10-18T14:49:45.898Z,99.99
2018-10-18T14:50:55.962Z,99.99
2018-10-18T14:52:05.795Z,99.99
2018-10-18T14:53:16.443Z,99.99
2018-10-18T14:54:26.427Z,99.99
2018-10-18T14:55:36.129Z,99.99
2018-10-18T14:56:46.136Z,99.99
2018-10-18T14:57:56.099Z,99.99
2018-10-18T14:59:05.607Z,99.99
2018-10-18T15:00:15.656Z,99.99
2018-10-18T15:01:25.103Z,99.99